Observation data for Roaring Springs on 02/15/2017      Previous  Date  Next       Current Mesonet Observations  Soil Data  Daily Summary Page  Observations in Plain Language
KRRS 150600Z 30012KT 04/00 A3015 RMK A01 T003700-0  RH  077%=      5-min Rain = 0
KRRS 150605Z 30012KT 04/00 A3015 RMK A01 T003700-0  RH  078%=      5-min Rain = 0
KRRS 150610Z 30012KT 04/M00 A3015 RMK A01 T00351001  RH  078%=      5-min Rain = 0
KRRS 150615Z 30012KT 03/M00 A3015 RMK A01 T00341001  RH  079%=      5-min Rain = 0
KRRS 150620Z 30012KT 03/M00 A3015 RMK A01 T00331001  RH  080%=      5-min Rain = 0
KRRS 150625Z 30011KT 03/M00 A3015 RMK A01 T00321001  RH  080%=      5-min Rain = 0
KRRS 150630Z 30012KT 03/M00 A3015 RMK A01 T00321001  RH  080%=      5-min Rain = 0
KRRS 150635Z 30011KT 03/M00 A3015 RMK A01 T00321001  RH  080%=      5-min Rain = 0
KRRS 150640Z 30011KT 03/M00 A3015 RMK A01 T00321002  RH  079%=      5-min Rain = 0
KRRS 150645Z 30011KT 03/M00 A3015 RMK A01 T00331002  RH  079%=      5-min Rain = 0
KRRS 150650Z 30011KT 03/M00 A3015 RMK A01 T00331003  RH  078%=      5-min Rain = 0
KRRS 150655Z 30011KT 03/M00 A3015 RMK A01 T00331003  RH  078%=      5-min Rain = 0
KRRS 150700Z 30011KT 03/M00 A3015 RMK A01 T00331003  RH  078%=      5-min Rain = 0
KRRS 150705Z 30011KT 03/M00 A3016 RMK A01 T00331004  RH  078%=      5-min Rain = 0
KRRS 150710Z 30011KT 03/M00 A3016 RMK A01 T00331004  RH  077%=      5-min Rain = 0
KRRS 150715Z 30011KT 03/M01 A3016 RMK A01 T00341005  RH  077%=      5-min Rain = 0
KRRS 150720Z 30011KT 04/M01 A3016 RMK A01 T00351006  RH  076%=      5-min Rain = 0
KRRS 150725Z 31011KT 04/M01 A3016 RMK A01 T00361006  RH  075%=      5-min Rain = 0
KRRS 150730Z 31011KT 04/M01 A3016 RMK A01 T00371007  RH  074%=      5-min Rain = 0
KRRS 150735Z 31012KT 04/M01 A3016 RMK A01 T00381007  RH  073%=      5-min Rain = 0
KRRS 150740Z 31012KT 04/M01 A3016 RMK A01 T00381007  RH  073%=      5-min Rain = 0
KRRS 150745Z 31011KT 04/M01 A3016 RMK A01 T00371008  RH  073%=      5-min Rain = 0
KRRS 150750Z 31012KT 04/M01 A3016 RMK A01 T00381008  RH  073%=      5-min Rain = 0
KRRS 150755Z 31012KT 04/M01 A3016 RMK A01 T00381009  RH  072%=      5-min Rain = 0
KRRS 150800Z 31012KT 04/M01 A3016 RMK A01 T00381009  RH  072%=      5-min Rain = 0
KRRS 150805Z 31012KT 04/M01 A3016 RMK A01 T00391010  RH  071%=      5-min Rain = 0
KRRS 150810Z 31012KT 04/M01 A3016 RMK A01 T00381010  RH  072%=      5-min Rain = 0
KRRS 150815Z 31012KT 04/M01 A3016 RMK A01 T00371010  RH  072%=      5-min Rain = 0
KRRS 150820Z 31012KT 04/M01 A3017 RMK A01 T00371011  RH  072%=      5-min Rain = 0
KRRS 150825Z 31012KT 04/M01 A3017 RMK A01 T00361011  RH  072%=      5-min Rain = 0
KRRS 150830Z 31012KT 04/M01 A3017 RMK A01 T00361011  RH  072%=      5-min Rain = 0
KRRS 150835Z 31012KT 04/M01 A3017 RMK A01 T00361012  RH  072%=      5-min Rain = 0
KRRS 150840Z 31012KT 04/M01 A3017 RMK A01 T00361012  RH  072%=      5-min Rain = 0
KRRS 150845Z 31012KT 04/M01 A3017 RMK A01 T00361012  RH  071%=      5-min Rain = 0
KRRS 150850Z 31012KT 04/M01 A3017 RMK A01 T00361013  RH  071%=      5-min Rain = 0
KRRS 150855Z 32012KT 04/M01 A3017 RMK A01 T00361013  RH  071%=      5-min Rain = 0
KRRS 150900Z 32012KT 04/M01 A3017 RMK A01 T00381014  RH  070%=      5-min Rain = 0
KRRS 150905Z 31012KT 04/M01 A3017 RMK A01 T00381014  RH  070%=      5-min Rain = 0
KRRS 150910Z 31012KT 04/M01 A3017 RMK A01 T00371014  RH  070%=      5-min Rain = 0
KRRS 150915Z 31012KT 04/M01 A3017 RMK A01 T00361014  RH  071%=      5-min Rain = 0
KRRS 150920Z 31012KT 04/M01 A3017 RMK A01 T00351014  RH  071%=      5-min Rain = 0
KRRS 150925Z 31011KT 03/M02 A3017 RMK A01 T00341015  RH  071%=      5-min Rain = 0
KRRS 150930Z 31011KT 03/M02 A3017 RMK A01 T00341015  RH  071%=      5-min Rain = 0
KRRS 150935Z 31011KT 03/M02 A3017 RMK A01 T00341015  RH  071%=      5-min Rain = 0
KRRS 150940Z 32012KT 03/M02 A3017 RMK A01 T00331015  RH  072%=      5-min Rain = 0
KRRS 150945Z 32012KT 03/M02 A3016 RMK A01 T00341015  RH  071%=      5-min Rain = 0
KRRS 150950Z 32012KT 04/M02 A3016 RMK A01 T00351015  RH  070%=      5-min Rain = 0
KRRS 150955Z 32012KT 04/M02 A3017 RMK A01 T00361015  RH  070%=      5-min Rain = 0
KRRS 151000Z 32011KT 04/M02 A3017 RMK A01 T00361016  RH  070%=      5-min Rain = 0
KRRS 151005Z 32011KT 04/M02 A3017 RMK A01 T00361016  RH  070%=      5-min Rain = 0
KRRS 151010Z 32011KT 03/M02 A3017 RMK A01 T00341016  RH  071%=      5-min Rain = 0
KRRS 151015Z 32011KT 03/M02 A3017 RMK A01 T00341016  RH  071%=      5-min Rain = 0
KRRS 151020Z 32011KT 03/M02 A3017 RMK A01 T00331016  RH  071%=      5-min Rain = 0
KRRS 151025Z 32011KT 03/M02 A3017 RMK A01 T00321017  RH  071%=      5-min Rain = 0
KRRS 151030Z 32010KT 03/M02 A3016 RMK A01 T00321017  RH  071%=      5-min Rain = 0
KRRS 151035Z 32011KT 03/M02 A3016 RMK A01 T00331017  RH  070%=      5-min Rain = 0
KRRS 151040Z 32011KT 03/M02 A3016 RMK A01 T00341018  RH  070%=      5-min Rain = 0
KRRS 151045Z 33011KT 04/M02 A3016 RMK A01 T00351018  RH  069%=      5-min Rain = 0
KRRS 151050Z 32010KT 03/M02 A3017 RMK A01 T00331018  RH  070%=      5-min Rain = 0
KRRS 151055Z 32011KT 03/M02 A3017 RMK A01 T00331018  RH  070%=      5-min Rain = 0
KRRS 151100Z 32010KT 03/M02 A3016 RMK A01 T00331018  RH  070%=      5-min Rain = 0
KRRS 151105Z 32011KT 03/M02 A3017 RMK A01 T00321018  RH  070%=      5-min Rain = 0
KRRS 151110Z 32011KT 03/M02 A3017 RMK A01 T00311018  RH  071%=      5-min Rain = 0
KRRS 151115Z 33011KT 03/M02 A3017 RMK A01 T00311019  RH  071%=      5-min Rain = 0
KRRS 151120Z 33011KT 03/M02 A3017 RMK A01 T00311019  RH  071%=      5-min Rain = 0
KRRS 151125Z 33012KT 03/M02 A3017 RMK A01 T00311018  RH  071%=      5-min Rain = 0
KRRS 151130Z 33011KT 03/M02 A3017 RMK A01 T00301018  RH  071%=      5-min Rain = 0
KRRS 151135Z 33011KT 03/M02 A3017 RMK A01 T00291018  RH  072%=      5-min Rain = 0
KRRS 151140Z 33011KT 03/M02 A3017 RMK A01 T00291018  RH  072%=      5-min Rain = 0
KRRS 151145Z 33012KT 03/M02 A3017 RMK A01 T00291018  RH  072%=      5-min Rain = 0
KRRS 151150Z 33012KT 03/M02 A3017 RMK A01 T00281018  RH  072%=      5-min Rain = 0
KRRS 151155Z 33012KT 03/M02 A3017 RMK A01 T00271018  RH  073%=      5-min Rain = 0
KRRS 151200Z 33012KT 03/M02 A3018 RMK A01 T00281019  RH  072%=      5-min Rain = 0
KRRS 151205Z 33012G17KT 03/M02 A3018 RMK A01 T00271019  RH  072%=      5-min Rain = 0
KRRS 151210Z 33012KT 03/M02 A3018 RMK A01 T00271019  RH  073%=      5-min Rain = 0
KRRS 151215Z 33011KT 03/M02 A3018 RMK A01 T00251019  RH  073%=      5-min Rain = 0
KRRS 151220Z 33012KT 02/M02 A3018 RMK A01 T00241019  RH  074%=      5-min Rain = 0
KRRS 151225Z 33012KT 02/M02 A3018 RMK A01 T00231020  RH  074%=      5-min Rain = 0
KRRS 151230Z 33012KT 02/M02 A3018 RMK A01 T00231020  RH  074%=      5-min Rain = 0
KRRS 151235Z 33011KT 02/M02 A3019 RMK A01 T00211020  RH  075%=      5-min Rain = 0
KRRS 151240Z 33011KT 02/M02 A3019 RMK A01 T00211020  RH  075%=      5-min Rain = 0
KRRS 151245Z 33012KT 02/M02 A3019 RMK A01 T00201020  RH  075%=      5-min Rain = 0
KRRS 151250Z 33011KT 02/M02 A3019 RMK A01 T00191021  RH  076%=      5-min Rain = 0
KRRS 151255Z 33011KT 02/M02 A3019 RMK A01 T00191021  RH  075%=      5-min Rain = 0
KRRS 151300Z 33011KT 02/M02 A302 RMK A01 T00181021  RH  076%=      5-min Rain = 0
KRRS 151305Z 33011KT 02/M02 A302 RMK A01 T00181021  RH  076%=      5-min Rain = 0
KRRS 151310Z 33011KT 02/M02 A302 RMK A01 T00171021  RH  077%=      5-min Rain = 0
KRRS 151315Z 33011KT 02/M02 A302 RMK A01 T00171022  RH  076%=      5-min Rain = 0
KRRS 151320Z 32011KT 02/M02 A3021 RMK A01 T00181022  RH  076%=      5-min Rain = 0
KRRS 151325Z 32011KT 02/M02 A3021 RMK A01 T00171022  RH  076%=      5-min Rain = 0
KRRS 151330Z 32011KT 02/M02 A3021 RMK A01 T00171022  RH  076%=      5-min Rain = 0
KRRS 151335Z 32011KT 02/M02 A3021 RMK A01 T00171022  RH  076%=      5-min Rain = 0
KRRS 151340Z 32011KT 02/M02 A3021 RMK A01 T00171022  RH  076%=      5-min Rain = 0
KRRS 151345Z 33011KT 02/M02 A3022 RMK A01 T00191022  RH  075%=      5-min Rain = 0
KRRS 151350Z 33011KT 02/M02 A3022 RMK A01 T00211021  RH  074%=      5-min Rain = 0
KRRS 151355Z 33011KT 02/M02 A3022 RMK A01 T00221021  RH  074%=      5-min Rain = 0
KRRS 151400Z 33011KT 02/M02 A3022 RMK A01 T00231021  RH  074%=      5-min Rain = 0
KRRS 151405Z 33010KT 03/M02 A3023 RMK A01 T00261020  RH  073%=      5-min Rain = 0
KRRS 151410Z 33011KT 03/M02 A3023 RMK A01 T00281019  RH  072%=      5-min Rain = 0
KRRS 151415Z 33011KT 03/M02 A3023 RMK A01 T00291019  RH  071%=      5-min Rain = 0
KRRS 151420Z 33010KT 03/M02 A3023 RMK A01 T00321018  RH  071%=      5-min Rain = 0
KRRS 151425Z 33011KT 03/M02 A3023 RMK A01 T00341017  RH  070%=      5-min Rain = 0
KRRS 151430Z 33011KT 04/M02 A3024 RMK A01 T00361017  RH  069%=      5-min Rain = 0
KRRS 151435Z 33010KT 04/M02 A3024 RMK A01 T00391015  RH  069%=      5-min Rain = 0
KRRS 151440Z 33011KT 04/M02 A3024 RMK A01 T00411015  RH  067%=      5-min Rain = 0
KRRS 151445Z 34012KT 04/M02 A3024 RMK A01 T00431015  RH  067%=      5-min Rain = 0
KRRS 151450Z 33011KT 04/M01 A3025 RMK A01 T00441014  RH  067%=      5-min Rain = 0
KRRS 151455Z 33011KT 05/M01 A3025 RMK A01 T00461013  RH  066%=      5-min Rain = 0
KRRS 151500Z 34010G15KT 05/M01 A3025 RMK A01 T00471013  RH  066%=      5-min Rain = 0
KRRS 151505Z 34012KT 05/M01 A3025 RMK A01 T00471014  RH  065%=      5-min Rain = 0
KRRS 151510Z 34010KT 05/M01 A3025 RMK A01 T00461013  RH  067%=      5-min Rain = 0
KRRS 151515Z 34012KT 05/M02 A3026 RMK A01 T00451015  RH  066%=      5-min Rain = 0
KRRS 151520Z 34010KT 04/M02 A3026 RMK A01 T00431015  RH  067%=      5-min Rain = 0
KRRS 151525Z 34011KT 04/M02 A3026 RMK A01 T00441015  RH  066%=      5-min Rain = 0
KRRS 151530Z 34011KT 05/M01 A3026 RMK A01 T00471014  RH  066%=      5-min Rain = 0
KRRS 151535Z 34011KT 05/M01 A3026 RMK A01 T00481013  RH  065%=      5-min Rain = 0
KRRS 151540Z 34011G16KT 05/M01 A3026 RMK A01 T00511014  RH  064%=      5-min Rain = 0
KRRS 151545Z 35009KT 05/M01 A3026 RMK A01 T00541010  RH  064%=      5-min Rain = 0
KRRS 151550Z 34010KT 06/M01 A3026 RMK A01 T00561011  RH  062%=      5-min Rain = 0
KRRS 151555Z 34009KT 06/M01 A3026 RMK A01 T00571010  RH  062%=      5-min Rain = 0
KRRS 151600Z 35009KT 06/M01 A3026 RMK A01 T00571011  RH  062%=      5-min Rain = 0
KRRS 151605Z 36009KT 06/M01 A3026 RMK A01 T00591010  RH  062%=      5-min Rain = 0
KRRS 151610Z 35008KT 06/M01 A3026 RMK A01 T00601011  RH  061%=      5-min Rain = 0
KRRS 151615Z 35007KT 06/M01 A3026 RMK A01 T00601009  RH  062%=      5-min Rain = 0
KRRS 151620Z 35007KT 06/M01 A3027 RMK A01 T00641007  RH  061%=      5-min Rain = 0
KRRS 151625Z 35007KT 07/M01 A3027 RMK A01 T00671006  RH  060%=      5-min Rain = 0
KRRS 151630Z 35005KT 07/M01 A3027 RMK A01 T00681007  RH  060%=      5-min Rain = 0
KRRS 151635Z 35007KT 07/M01 A3026 RMK A01 T00691005  RH  060%=      5-min Rain = 0
KRRS 151640Z 34006KT 07/M01 A3026 RMK A01 T00681007  RH  059%=      5-min Rain = 0
KRRS 151645Z 34006KT 07/M01 A3026 RMK A01 T00691005  RH  060%=      5-min Rain = 0
KRRS 151650Z 35005G10KT 07/M01 A3026 RMK A01 T00721005  RH  058%=      5-min Rain = 0
KRRS 151655Z 02006KT 08/M00 A3026 RMK A01 T00751003  RH  058%=      5-min Rain = 0
KRRS 151700Z 01004KT 08/M00 A3027 RMK A01 T00761004  RH  058%=      5-min Rain = 0
KRRS 151705Z 01006KT 08/M00 A3027 RMK A01 T00771004  RH  057%=      5-min Rain = 0
KRRS 151710Z 01005KT 08/M01 A3027 RMK A01 T00771005  RH  057%=      5-min Rain = 0
KRRS 151715Z 03007KT 08/M01 A3027 RMK A01 T00791006  RH  056%=      5-min Rain = 0
KRRS 151720Z 02006KT 08/M01 A3027 RMK A01 T00791005  RH  056%=      5-min Rain = 0
KRRS 151725Z 36006KT 08/M01 A3027 RMK A01 T00791010  RH  054%=      5-min Rain = 0
KRRS 151730Z 01006KT 08/M01 A3026 RMK A01 T00781012  RH  054%=      5-min Rain = 0
KRRS 151735Z 35007KT 08/M01 A3026 RMK A01 T00811006  RH  055%=      5-min Rain = 0
KRRS 151740Z 35007KT 08/M01 A3026 RMK A01 T00821008  RH  054%=      5-min Rain = 0
KRRS 151745Z 01006KT 08/M01 A3026 RMK A01 T00831007  RH  054%=      5-min Rain = 0
KRRS 151750Z 35007KT 08/M01 A3026 RMK A01 T00841010  RH  052%=      5-min Rain = 0
KRRS 151755Z 33004KT 09/M01 A3026 RMK A01 T00851009  RH  052%=      5-min Rain = 0
KRRS 151800Z 35006G12KT 09/M01 A3025 RMK A01 T00881006  RH  052%=      5-min Rain = 0
KRRS 151805Z 35007KT 09/M01 A3025 RMK A01 T00871014  RH  050%=      5-min Rain = 0
KRRS 151810Z 00008KT 09/M02 A3025 RMK A01 T00891017  RH  048%=      5-min Rain = 0
KRRS 151815Z 01009KT 09/M02 A3025 RMK A01 T00901018  RH  047%=      5-min Rain = 0
KRRS 151820Z 02008KT 09/M02 A3025 RMK A01 T00921015  RH  048%=      5-min Rain = 0
KRRS 151825Z 00007G12KT 09/M02 A3025 RMK A01 T00931017  RH  047%=      5-min Rain = 0
KRRS 151830Z 34007KT 09/M02 A3024 RMK A01 T00941015  RH  047%=      5-min Rain = 0
KRRS 151835Z 33007KT 10/M02 A3024 RMK A01 T00951016  RH  046%=      5-min Rain = 0
KRRS 151840Z 34005KT 10/M01 A3024 RMK A01 T00951013  RH  047%=      5-min Rain = 0
KRRS 151845Z 01008G13KT 10/M01 A3024 RMK A01 T01001014  RH  045%=      5-min Rain = 0
KRRS 151850Z 00007G12KT 10/M02 A3024 RMK A01 T00971017  RH  045%=      5-min Rain = 0
KRRS 151855Z 33006G11KT 10/M02 A3023 RMK A01 T00991020  RH  044%=      5-min Rain = 0
KRRS 151900Z 01008KT 10/M02 A3023 RMK A01 T01011020  RH  043%=      5-min Rain = 0
KRRS 151905Z 35005G11KT 10/M02 A3023 RMK A01 T00991024  RH  043%=      5-min Rain = 0
KRRS 151910Z 01007KT 10/M03 A3023 RMK A01 T00991029  RH  041%=      5-min Rain = 0
KRRS 151915Z 35007KT 10/M02 A3023 RMK A01 T01021024  RH  042%=      5-min Rain = 0
KRRS 151920Z 36005G10KT 10/M02 A3022 RMK A01 T01041024  RH  041%=      5-min Rain = 0
KRRS 151925Z 35005G11KT 11/M02 A3022 RMK A01 T01071021  RH  041%=      5-min Rain = 0
KRRS 151930Z 35006G13KT 11/M03 A3021 RMK A01 T01051027  RH  040%=      5-min Rain = 0
KRRS 151935Z 01005KT 11/M03 A3021 RMK A01 T01051025  RH  040%=      5-min Rain = 0
KRRS 151940Z 33006KT 11/M03 A3021 RMK A01 T01081027  RH  039%=      5-min Rain = 0
KRRS 151945Z 29004G9KT 11/M03 A302 RMK A01 T01091030  RH  038%=      5-min Rain = 0
KRRS 151950Z 03007KT 11/M02 A302 RMK A01 T01091024  RH  040%=      5-min Rain = 0
KRRS 151955Z 36006KT 11/M02 A302 RMK A01 T01081021  RH  041%=      5-min Rain = 0
KRRS 152000Z 35006G11KT 11/M03 A302 RMK A01 T01091032  RH  038%=      5-min Rain = 0
KRRS 152005Z 01006KT 11/M03 A3019 RMK A01 T01101025  RH  039%=      5-min Rain = 0
KRRS 152010Z 35006KT 11/M02 A3019 RMK A01 T01091024  RH  040%=      5-min Rain = 0
KRRS 152015Z 33005KT 11/M03 A3019 RMK A01 T01091026  RH  039%=      5-min Rain = 0
KRRS 152020Z 31003KT 11/M02 A3019 RMK A01 T01101024  RH  039%=      5-min Rain = 0
KRRS 152025Z 35007G12KT 12/M03 A3018 RMK A01 T01151028  RH  037%=      5-min Rain = 0
KRRS 152030Z 00007KT 12/M04 A3018 RMK A01 T01151037  RH  035%=      5-min Rain = 0
KRRS 152035Z 35008G13KT 12/M03 A3018 RMK A01 T01171033  RH  035%=      5-min Rain = 0
KRRS 152040Z 35007KT 12/M03 A3018 RMK A01 T01151031  RH  036%=      5-min Rain = 0
KRRS 152045Z 34005KT 11/M03 A3018 RMK A01 T01141029  RH  037%=      5-min Rain = 0
KRRS 152050Z 32005KT 12/M03 A3017 RMK A01 T01161034  RH  035%=      5-min Rain = 0
KRRS 152055Z 36005G11KT 12/M03 A3017 RMK A01 T01151034  RH  035%=      5-min Rain = 0
KRRS 152100Z 00005G10KT 12/M03 A3017 RMK A01 T01171032  RH  036%=      5-min Rain = 0
KRRS 152105Z 01005G10KT 12/M03 A3017 RMK A01 T01181032  RH  035%=      5-min Rain = 0
KRRS 152110Z 34006G11KT 12/M03 A3017 RMK A01 T01191028  RH  036%=      5-min Rain = 0
KRRS 152115Z 02007KT 12/M03 A3017 RMK A01 T01231029  RH  035%=      5-min Rain = 0
KRRS 152120Z 01007KT 12/M03 A3017 RMK A01 T01211030  RH  035%=      5-min Rain = 0
KRRS 152125Z 02006KT 12/M03 A3017 RMK A01 T01211028  RH  036%=      5-min Rain = 0
KRRS 152130Z 04008KT 12/M03 A3016 RMK A01 T01201030  RH  035%=      5-min Rain = 0
KRRS 152135Z 03004KT 12/M03 A3016 RMK A01 T01211027  RH  036%=      5-min Rain = 0
KRRS 152140Z 35005KT 12/M03 A3016 RMK A01 T01241026  RH  036%=      5-min Rain = 0
KRRS 152145Z 02004KT 12/M03 A3016 RMK A01 T01211029  RH  035%=      5-min Rain = 0
KRRS 152150Z 01003KT 12/M03 A3016 RMK A01 T01221029  RH  035%=      5-min Rain = 0
KRRS 152155Z 34003KT 12/M02 A3015 RMK A01 T01241024  RH  036%=      5-min Rain = 0
KRRS 152200Z 03005KT 13/M03 A3015 RMK A01 T01251025  RH  035%=      5-min Rain = 0
KRRS 152205Z 34004G9KT 13/M02 A3015 RMK A01 T01251023  RH  036%=      5-min Rain = 0
KRRS 152210Z 00004KT 13/M03 A3015 RMK A01 T01271025  RH  035%=      5-min Rain = 0
KRRS 152215Z 36005KT 13/M03 A3014 RMK A01 T01251025  RH  036%=      5-min Rain = 0
KRRS 152220Z 04004KT 12/M03 A3014 RMK A01 T01231026  RH  036%=      5-min Rain = 0
KRRS 152225Z 05004KT 12/M02 A3014 RMK A01 T01241024  RH  036%=      5-min Rain = 0
KRRS 152230Z 06003KT 12/M02 A3014 RMK A01 T01241024  RH  036%=      5-min Rain = 0
KRRS 152235Z 35006KT 13/M02 A3014 RMK A01 T01261023  RH  036%=      5-min Rain = 0
KRRS 152240Z 03004KT 13/M03 A3013 RMK A01 T01251025  RH  035%=      5-min Rain = 0
KRRS 152245Z 03004KT 13/M03 A3013 RMK A01 T01261025  RH  036%=      5-min Rain = 0
KRRS 152250Z 34003KT 13/M02 A3013 RMK A01 T01261023  RH  036%=      5-min Rain = 0
KRRS 152255Z 33004KT 13/M02 A3013 RMK A01 T01291023  RH  035%=      5-min Rain = 0
KRRS 152300Z 35006KT 13/M02 A3013 RMK A01 T01261022  RH  036%=      5-min Rain = 0
KRRS 152305Z 00004KT 13/M02 A3013 RMK A01 T01251023  RH  036%=      5-min Rain = 0
KRRS 152310Z 02004KT 13/M03 A3013 RMK A01 T01261025  RH  035%=      5-min Rain = 0
KRRS 152315Z 01003KT 12/M02 A3013 RMK A01 T01241024  RH  036%=      5-min Rain = 0
KRRS 152320Z 03005KT 13/M02 A3013 RMK A01 T01251024  RH  036%=      5-min Rain = 0
KRRS 152325Z 03005KT 12/M02 A3013 RMK A01 T01221024  RH  036%=      5-min Rain = 0
KRRS 152330Z 03004KT 12/M03 A3013 RMK A01 T01221025  RH  036%=      5-min Rain = 0
KRRS 152335Z 06003KT 12/M02 A3013 RMK A01 T01211022  RH  037%=      5-min Rain = 0
KRRS 152340Z 09003KT 12/M02 A3013 RMK A01 T01201018  RH  039%=      5-min Rain = 0
KRRS 152345Z 09004KT 12/M01 A3012 RMK A01 T01181010  RH  042%=      5-min Rain = 0
KRRS 152350Z 09004KT 12/M01 A3012 RMK A01 T01161011  RH  042%=      5-min Rain = 0
KRRS 152355Z 11004KT 11/M01 A3012 RMK A01 T01141011  RH  043%=      5-min Rain = 0
KRRS 160000Z 11005KT 11/M01 A3012 RMK A01 T01111007  RH  044%=      5-min Rain = 0
KRRS 160005Z 10005KT 11/00 A3012 RMK A01 T01080004  RH  049%=      5-min Rain = 0
KRRS 160010Z 11004KT 11/01 A3012 RMK A01 T01050009  RH  052%=      5-min Rain = 0
KRRS 160015Z 13005KT 10/01 A3012 RMK A01 T01030006  RH  052%=      5-min Rain = 0
KRRS 160020Z 13004KT 10/01 A3012 RMK A01 T01000005  RH  052%=      5-min Rain = 0
KRRS 160025Z 13004KT 10/01 A3012 RMK A01 T00980005  RH  053%=      5-min Rain = 0
KRRS 160030Z 13004KT 10/00 A3012 RMK A01 T00960004  RH  054%=      5-min Rain = 0
KRRS 160035Z 13004KT 09/00 A3012 RMK A01 T00940003  RH  054%=      5-min Rain = 0
KRRS 160040Z 12003KT 09/00 A3012 RMK A01 T00930001  RH  053%=      5-min Rain = 0
KRRS 160045Z 12004KT 09/M00 A3012 RMK A01 T00931001  RH  053%=      5-min Rain = 0
KRRS 160050Z 12004KT 09/00 A3012 RMK A01 T00910000  RH  053%=      5-min Rain = 0
KRRS 160055Z 12005KT 09/01 A3012 RMK A01 T00900005  RH  056%=      5-min Rain = 0
KRRS 160100Z 12005KT 09/00 A3012 RMK A01 T00880002  RH  056%=      5-min Rain = 0
KRRS 160105Z 12005KT 09/00 A3012 RMK A01 T00870002  RH  056%=      5-min Rain = 0
KRRS 160110Z 12004KT 09/M00 A3012 RMK A01 T00851001  RH  055%=      5-min Rain = 0
KRRS 160115Z 12004KT 09/M01 A3012 RMK A01 T00851006  RH  053%=      5-min Rain = 0
KRRS 160120Z 13004KT 09/M01 A3012 RMK A01 T00851010  RH  052%=      5-min Rain = 0
KRRS 160125Z 13005KT 08/M01 A3012 RMK A01 T00831006  RH  054%=      5-min Rain = 0
KRRS 160130Z 14005KT 08/M01 A3012 RMK A01 T00811005  RH  055%=      5-min Rain = 0
KRRS 160135Z 14005KT 08/M01 A3012 RMK A01 T00781008  RH  055%=      5-min Rain = 0
KRRS 160140Z 16005KT 07/M02 A3012 RMK A01 T00741015  RH  054%=      5-min Rain = 0
KRRS 160145Z 17004KT 07/M02 A3012 RMK A01 T00691022  RH  053%=      5-min Rain = 0
KRRS 160150Z 16005KT 07/M02 A3012 RMK A01 T00711021  RH  052%=      5-min Rain = 0
KRRS 160155Z 16005KT 07/M02 A3012 RMK A01 T00721021  RH  052%=      5-min Rain = 0
KRRS 160200Z 17005KT 07/M02 A3012 RMK A01 T00721021  RH  052%=      5-min Rain = 0
KRRS 160205Z 17005KT 07/M02 A3012 RMK A01 T00721019  RH  053%=      5-min Rain = 0
KRRS 160210Z 17005KT 07/M02 A3012 RMK A01 T00721016  RH  054%=      5-min Rain = 0
KRRS 160215Z 18005KT 07/M02 A3012 RMK A01 T00721015  RH  054%=      5-min Rain = 0
KRRS 160220Z 18004KT 07/M02 A3012 RMK A01 T00731017  RH  054%=      5-min Rain = 0
KRRS 160225Z 18004KT 07/M02 A3012 RMK A01 T00721016  RH  054%=      5-min Rain = 0
KRRS 160230Z 19004KT 07/M02 A3012 RMK A01 T00671016  RH  056%=      5-min Rain = 0
KRRS 160235Z 19004KT 06/M02 A3012 RMK A01 T00631016  RH  057%=      5-min Rain = 0
KRRS 160240Z 18004KT 06/M02 A3012 RMK A01 T00631015  RH  058%=      5-min Rain = 0
KRRS 160245Z 19004KT 06/M02 A3012 RMK A01 T00631015  RH  058%=      5-min Rain = 0
KRRS 160250Z 19005KT 06/M02 A3013 RMK A01 T00611015  RH  059%=      5-min Rain = 0
KRRS 160255Z 19005KT 06/M02 A3013 RMK A01 T00591015  RH  060%=      5-min Rain = 0
KRRS 160300Z 20005KT 06/M02 A3013 RMK A01 T00551016  RH  061%=      5-min Rain = 0
KRRS 160305Z 19005KT 06/M02 A3013 RMK A01 T00551016  RH  061%=      5-min Rain = 0
KRRS 160310Z 20006KT 06/M02 A3013 RMK A01 T00551016  RH  061%=      5-min Rain = 0
KRRS 160315Z 20005KT 05/M02 A3013 RMK A01 T00491016  RH  063%=      5-min Rain = 0
KRRS 160320Z 21005KT 05/M02 A3013 RMK A01 T00461018  RH  064%=      5-min Rain = 0
KRRS 160325Z 21005KT 04/M02 A3013 RMK A01 T00441016  RH  066%=      5-min Rain = 0
KRRS 160330Z 20005KT 05/M02 A3013 RMK A01 T00451015  RH  066%=      5-min Rain = 0
KRRS 160335Z 20005KT 05/M02 A3013 RMK A01 T00451015  RH  066%=      5-min Rain = 0
KRRS 160340Z 21004KT 04/M01 A3013 RMK A01 T00441014  RH  067%=      5-min Rain = 0
KRRS 160345Z 21005KT 04/M01 A3013 RMK A01 T00421014  RH  068%=      5-min Rain = 0
KRRS 160350Z 21005KT 04/M01 A3013 RMK A01 T00411013  RH  069%=      5-min Rain = 0
KRRS 160355Z 22005KT 04/M01 A3013 RMK A01 T00381011  RH  071%=      5-min Rain = 0
KRRS 160400Z 22004KT 04/M01 A3013 RMK A01 T00361008  RH  074%=      5-min Rain = 0
KRRS 160405Z 22005KT 03/M01 A3013 RMK A01 T00341007  RH  075%=      5-min Rain = 0
KRRS 160410Z 22005KT 03/M01 A3013 RMK A01 T00331006  RH  076%=      5-min Rain = 0
KRRS 160415Z 22005KT 03/M01 A3013 RMK A01 T00311006  RH  077%=      5-min Rain = 0
KRRS 160420Z 22006KT 03/M01 A3012 RMK A01 T00311005  RH  078%=      5-min Rain = 0
KRRS 160425Z 22005KT 03/M01 A3012 RMK A01 T00301005  RH  079%=      5-min Rain = 0
KRRS 160430Z 23005KT 03/M00 A3012 RMK A01 T00301004  RH  079%=      5-min Rain = 0
KRRS 160435Z 23005KT 03/M00 A3012 RMK A01 T00321003  RH  078%=      5-min Rain = 0
KRRS 160440Z 23005KT 03/M00 A3012 RMK A01 T00341002  RH  078%=      5-min Rain = 0
KRRS 160445Z 23006KT 04/M00 A3012 RMK A01 T00361002  RH  077%=      5-min Rain = 0
KRRS 160450Z 23006KT 04/M00 A3012 RMK A01 T00361002  RH  077%=      5-min Rain = 0
KRRS 160455Z 23006KT 04/M00 A3012 RMK A01 T00361002  RH  077%=      5-min Rain = 0
KRRS 160500Z 23006KT 03/M00 A3012 RMK A01 T00341003  RH  078%=      5-min Rain = 0
KRRS 160505Z 23006KT 03/M00 A3012 RMK A01 T00311004  RH  079%=      5-min Rain = 0
KRRS 160510Z 23007KT 03/M01 A3012 RMK A01 T00291005  RH  080%=      5-min Rain = 0
KRRS 160515Z 23007KT 03/M00 A3012 RMK A01 T00281004  RH  081%=      5-min Rain = 0
KRRS 160520Z 23008KT 03/M00 A3012 RMK A01 T00261004  RH  082%=      5-min Rain = 0
KRRS 160525Z 23007KT 02/M00 A3012 RMK A01 T00241004  RH  083%=      5-min Rain = 0
KRRS 160530Z 23007KT 02/M00 A3011 RMK A01 T00241003  RH  083%=      5-min Rain = 0
KRRS 160535Z 23007KT 03/M00 A3011 RMK A01 T00281001  RH  082%=      5-min Rain = 0
KRRS 160540Z 23007KT 03/M00 A3011 RMK A01 T00291002  RH  081%=      5-min Rain = 0
KRRS 160545Z 24007KT 03/M00 A3011 RMK A01 T00281003  RH  081%=      5-min Rain = 0
KRRS 160550Z 24007KT 03/M00 A3011 RMK A01 T00271003  RH  081%=      5-min Rain = 0
KRRS 160555Z 24008KT 03/M00 A3011 RMK A01 T00251004  RH  082%=      5-min Rain = 0

Page generated in 0.0255 seconds.